createdAt,value
2023-03-06T00:00:47.926Z,4.80
2023-03-06T00:03:17.478Z,4.80
2023-03-06T00:05:45.388Z,4.29
2023-03-06T00:08:13.397Z,4.36
2023-03-06T00:10:42.089Z,4.61
2023-03-06T00:13:14.702Z,4.38
2023-03-06T00:15:43.490Z,4.07
2023-03-06T00:18:11.399Z,4.06
2023-03-06T00:20:44.272Z,4.04
2023-03-06T00:23:13.612Z,4.46
2023-03-06T00:25:44.558Z,4.37
2023-03-06T00:28:14.920Z,4.16
2023-03-06T00:30:44.083Z,3.95
2023-03-06T00:33:12.112Z,3.84
2023-03-06T00:35:42.261Z,3.97
2023-03-06T00:38:13.150Z,4.08
2023-03-06T00:40:41.107Z,4.36
2023-03-06T00:43:08.972Z,4.54
2023-03-06T00:45:37.079Z,4.59
2023-03-06T00:48:06.086Z,4.65
2023-03-06T00:50:35.209Z,4.45
2023-03-06T00:53:04.576Z,4.38
2023-03-06T00:55:33.546Z,4.63
2023-03-06T00:58:01.457Z,4.23
2023-03-06T01:00:29.520Z,4.47
2023-03-06T01:02:57.325Z,4.35
2023-03-06T01:05:25.147Z,4.39
2023-03-06T01:07:53.001Z,4.19
2023-03-06T01:10:22.678Z,3.86
2023-03-06T01:12:50.480Z,3.86
2023-03-06T01:15:18.447Z,3.67
2023-03-06T01:17:46.484Z,3.73
2023-03-06T01:20:16.943Z,3.41
2023-03-06T01:22:45.437Z,3.41
2023-03-06T01:25:14.178Z,3.36
2023-03-06T01:27:43.383Z,3.19
2023-03-06T01:30:13.508Z,3.00
2023-03-06T01:32:41.859Z,3.47
2023-03-06T01:35:11.185Z,3.38
2023-03-06T01:37:40.738Z,3.23
2023-03-06T01:40:13.650Z,3.63
2023-03-06T01:42:43.357Z,3.50
2023-03-06T01:46:03.587Z,3.31
2023-03-06T01:48:31.609Z,3.09
2023-03-06T01:50:59.430Z,3.58
2023-03-06T01:53:27.535Z,3.57
2023-03-06T01:55:56.472Z,3.27
2023-03-06T01:58:25.861Z,3.44
2023-03-06T02:00:54.172Z,3.56
2023-03-06T02:03:27.414Z,3.61
2023-03-06T02:05:55.793Z,3.64
2023-03-06T02:08:25.008Z,3.38
2023-03-06T02:11:02.261Z,3.85
2023-03-06T02:13:31.892Z,3.86
2023-03-06T02:16:00.435Z,3.93
2023-03-06T02:18:29.487Z,3.80
2023-03-06T02:21:01.277Z,4.15
2023-03-06T02:23:39.775Z,3.83
2023-03-06T02:26:11.040Z,3.87
2023-03-06T02:28:39.888Z,3.53
2023-03-06T02:31:08.370Z,3.40
2023-03-06T02:33:36.314Z,3.53
2023-03-06T02:36:07.780Z,3.59
2023-03-06T02:38:44.772Z,3.56
2023-03-06T02:41:14.026Z,3.35
2023-03-06T02:43:44.921Z,3.27
2023-03-06T02:46:13.027Z,3.22
2023-03-06T02:48:41.029Z,3.21
2023-03-06T02:51:08.868Z,3.46
2023-03-06T02:53:36.767Z,3.42
2023-03-06T02:56:04.659Z,3.37
2023-03-06T02:58:33.851Z,3.41
2023-03-06T03:01:01.731Z,3.45
2023-03-06T03:03:29.749Z,3.52
2023-03-06T03:05:57.859Z,3.46
2023-03-06T03:08:25.813Z,3.72
2023-03-06T03:10:53.804Z,3.34
2023-03-06T03:13:21.726Z,3.29
2023-03-06T03:16:01.495Z,3.48
2023-03-06T03:18:30.176Z,3.20
2023-03-06T03:20:58.064Z,3.53
2023-03-06T03:23:27.654Z,3.21
2023-03-06T03:25:55.581Z,3.28
2023-03-06T03:28:23.577Z,3.30
2023-03-06T03:30:51.469Z,3.51
2023-03-06T03:33:20.804Z,3.45
2023-03-06T03:35:58.447Z,3.39
2023-03-06T03:38:26.636Z,3.45
2023-03-06T03:40:54.539Z,3.51
2023-03-06T03:43:22.453Z,3.45
2023-03-06T03:45:50.545Z,3.57
2023-03-06T03:48:19.963Z,3.85
2023-03-06T03:50:47.896Z,3.54
2023-03-06T03:53:15.831Z,3.75
2023-03-06T03:55:43.740Z,3.75
2023-03-06T03:58:11.552Z,3.66
2023-03-06T04:00:39.581Z,3.48
2023-03-06T04:03:07.383Z,3.66
2023-03-06T04:05:36.957Z,3.29
2023-03-06T04:08:05.587Z,3.33
2023-03-06T04:10:34.288Z,3.43
2023-03-06T04:13:02.183Z,3.29
2023-03-06T04:15:30.610Z,2.97
2023-03-06T04:17:58.952Z,3.53
2023-03-06T04:20:27.903Z,3.18
2023-03-06T04:22:57.393Z,3.46
2023-03-06T04:25:25.318Z,3.31
2023-03-06T04:27:53.162Z,3.46
2023-03-06T04:30:21.220Z,3.42
2023-03-06T04:32:48.991Z,3.36
2023-03-06T04:35:17.100Z,3.70
2023-03-06T04:37:45.150Z,3.54
2023-03-06T04:40:19.865Z,3.52
2023-03-06T04:42:47.735Z,3.55
2023-03-06T04:45:17.075Z,3.50
2023-03-06T04:47:44.946Z,3.47
2023-03-06T04:50:13.956Z,3.44
2023-03-06T04:52:41.726Z,3.03
2023-03-06T04:55:11.729Z,3.62
2023-03-06T04:57:43.738Z,4.01
2023-03-06T05:00:17.123Z,3.74
2023-03-06T05:02:46.094Z,3.88
2023-03-06T05:05:15.502Z,4.02
2023-03-06T05:07:43.945Z,3.45
2023-03-06T05:10:15.111Z,3.30
2023-03-06T05:12:45.016Z,3.34
2023-03-06T05:15:14.680Z,3.36
2023-03-06T05:17:42.847Z,3.46
2023-03-06T05:20:13.481Z,3.70
2023-03-06T05:22:41.531Z,3.36
2023-03-06T05:25:11.637Z,3.36
2023-03-06T05:27:39.669Z,3.48
2023-03-06T05:30:13.499Z,3.55
2023-03-06T05:32:41.657Z,3.30
2023-03-06T05:35:17.966Z,3.59
2023-03-06T05:37:45.764Z,3.50
2023-03-06T05:40:15.740Z,3.56
2023-03-06T05:42:43.628Z,3.35
2023-03-06T05:45:13.635Z,3.69
2023-03-06T05:47:41.468Z,3.73
2023-03-06T05:50:11.378Z,3.74
2023-03-06T05:52:40.518Z,4.02
2023-03-06T05:55:12.591Z,3.84
2023-03-06T05:57:40.544Z,3.82
2023-03-06T06:00:12.659Z,3.93
2023-03-06T06:02:40.933Z,3.71
2023-03-06T06:05:12.869Z,3.55
2023-03-06T06:07:41.373Z,3.66
2023-03-06T06:10:12.892Z,3.88
2023-03-06T06:12:40.953Z,3.54
2023-03-06T06:15:10.044Z,3.54
2023-03-06T06:17:39.393Z,4.38
2023-03-06T06:20:09.167Z,4.61
2023-03-06T06:22:38.725Z,4.56
2023-03-06T06:25:08.411Z,4.94
2023-03-06T06:27:36.247Z,4.99
2023-03-06T06:30:05.780Z,4.80
2023-03-06T06:32:33.705Z,4.48
2023-03-06T06:35:03.381Z,4.79
2023-03-06T06:37:31.371Z,4.19
2023-03-06T06:39:59.195Z,5.04
2023-03-06T06:42:33.237Z,4.95
2023-03-06T06:45:03.838Z,4.50
2023-03-06T06:47:31.719Z,4.23
2023-03-06T06:49:59.602Z,4.81
2023-03-06T06:52:28.987Z,4.42
2023-03-06T06:54:57.057Z,4.32
2023-03-06T06:57:24.920Z,5.01
2023-03-06T06:59:54.201Z,4.97
2023-03-06T07:02:22.586Z,5.16
2023-03-06T07:05:03.169Z,5.27
2023-03-06T07:07:36.607Z,5.32
2023-03-06T07:10:13.320Z,4.57
2023-03-06T07:12:41.528Z,5.64
2023-03-06T07:15:14.324Z,5.52
2023-03-06T07:17:42.300Z,5.57
2023-03-06T07:20:12.701Z,5.28
2023-03-06T07:22:50.789Z,5.68
2023-03-06T07:25:22.518Z,5.64
2023-03-06T07:27:54.291Z,5.73
2023-03-06T07:30:23.961Z,5.94
2023-03-06T07:32:55.109Z,5.80
2023-03-06T07:35:24.546Z,5.28
2023-03-06T07:37:54.316Z,5.82
2023-03-06T07:40:23.584Z,5.77
2023-03-06T07:42:53.812Z,5.40
2023-03-06T07:45:22.085Z,5.09
2023-03-06T07:47:53.556Z,5.35
2023-03-06T07:50:22.830Z,5.66
2023-03-06T07:52:54.112Z,5.91
2023-03-06T07:55:22.156Z,6.00
2023-03-06T07:57:52.421Z,6.01
2023-03-06T08:00:21.771Z,6.07
2023-03-06T08:02:50.257Z,6.25
2023-03-06T08:05:18.770Z,6.24
2023-03-06T08:07:46.726Z,6.96
2023-03-06T08:10:17.895Z,7.84
2023-03-06T08:12:46.015Z,8.35
2023-03-06T08:15:17.257Z,9.07
2023-03-06T08:17:45.216Z,9.41
2023-03-06T08:20:15.475Z,8.82
2023-03-06T08:22:43.460Z,8.39
2023-03-06T08:25:13.302Z,8.69
2023-03-06T08:27:43.310Z,8.82
2023-03-06T08:30:13.240Z,8.47
2023-03-06T08:32:41.244Z,9.16
2023-03-06T08:35:09.950Z,9.46
2023-03-06T08:37:37.973Z,10.20
2023-03-06T08:40:07.244Z,10.60
2023-03-06T08:42:35.281Z,10.68
2023-03-06T08:45:05.291Z,10.39
2023-03-06T08:47:33.433Z,10.97
2023-03-06T08:50:01.433Z,10.78
2023-03-06T08:52:29.473Z,11.04
2023-03-06T08:54:57.995Z,12.12
2023-03-06T08:57:25.986Z,12.05
2023-03-06T08:59:53.883Z,12.03
2023-03-06T09:02:23.224Z,11.80
2023-03-06T09:04:51.222Z,11.67
2023-03-06T09:07:19.159Z,12.87
2023-03-06T09:09:47.119Z,11.87
2023-03-06T09:12:15.072Z,12.32
2023-03-06T09:14:42.972Z,11.08
2023-03-06T09:17:10.877Z,10.42
2023-03-06T09:19:40.442Z,10.18
2023-03-06T09:22:08.445Z,11.42
2023-03-06T09:24:36.785Z,11.60
2023-03-06T09:27:05.029Z,11.46
2023-03-06T09:29:33.025Z,11.34
2023-03-06T09:32:00.905Z,12.39
2023-03-06T09:34:28.805Z,12.67
2023-03-06T09:36:58.199Z,12.77
2023-03-06T09:39:27.372Z,13.86
2023-03-06T09:41:58.220Z,12.89
2023-03-06T09:44:30.104Z,12.54
2023-03-06T09:47:27.431Z,12.45
2023-03-06T09:50:15.168Z,11.74
2023-03-06T09:53:01.714Z,11.66
2023-03-06T09:55:33.673Z,11.32
2023-03-06T09:58:12.182Z,11.16
2023-03-06T10:00:45.454Z,10.15
2023-03-06T10:03:26.473Z,10.38
2023-03-06T10:06:03.635Z,9.64
2023-03-06T10:08:50.093Z,9.89
2023-03-06T10:11:27.030Z,10.90
2023-03-06T10:14:12.033Z,10.34
2023-03-06T10:16:41.144Z,11.39
2023-03-06T10:19:16.551Z,11.68
2023-03-06T10:21:57.216Z,12.36
2023-03-06T10:24:45.609Z,12.26
2023-03-06T10:27:29.492Z,13.03
2023-03-06T10:30:12.846Z,12.89
2023-03-06T10:32:58.587Z,13.05
2023-03-06T10:35:32.473Z,12.68
2023-03-06T10:38:17.227Z,12.13
2023-03-06T10:41:05.206Z,13.78
2023-03-06T10:43:36.206Z,13.00
2023-03-06T10:46:06.126Z,12.79
2023-03-06T10:48:37.817Z,13.62
2023-03-06T10:51:20.328Z,13.32
2023-03-06T10:53:55.235Z,12.84
2023-03-06T10:56:36.562Z,13.21
2023-03-06T10:59:12.405Z,11.67
2023-03-06T11:01:42.238Z,12.19
2023-03-06T11:04:27.385Z,12.02
2023-03-06T11:07:18.228Z,12.28
2023-03-06T11:10:02.283Z,12.35
2023-03-06T11:12:34.787Z,12.92
2023-03-06T11:15:25.211Z,11.69
2023-03-06T11:17:59.434Z,11.57
2023-03-06T11:20:48.871Z,11.17
2023-03-06T11:23:26.195Z,10.68
2023-03-06T11:26:01.243Z,10.34
2023-03-06T11:28:35.471Z,10.75
2023-03-06T11:31:11.495Z,10.40
2023-03-06T11:33:48.627Z,9.48
2023-03-06T11:36:26.440Z,10.40
2023-03-06T11:38:56.077Z,11.41
2023-03-06T11:41:40.201Z,12.26
2023-03-06T11:44:23.101Z,11.36
2023-03-06T11:47:00.210Z,12.71
2023-03-06T11:49:37.681Z,11.81
2023-03-06T11:52:15.831Z,13.17
2023-03-06T11:54:43.970Z,13.16
2023-03-06T11:57:21.533Z,12.17
2023-03-06T12:00:23.238Z,12.42
2023-03-06T12:03:49.513Z,12.38
2023-03-06T12:06:33.080Z,12.24
2023-03-06T12:09:23.261Z,13.09
2023-03-06T12:12:11.330Z,12.37
2023-03-06T12:15:05.489Z,13.15
2023-03-06T12:17:57.377Z,12.56
2023-03-06T12:20:48.552Z,12.15
2023-03-06T12:23:46.897Z,12.46
2023-03-06T12:26:39.985Z,13.55
2023-03-06T12:29:25.632Z,13.39
2023-03-06T12:32:14.704Z,13.99
2023-03-06T12:35:11.063Z,13.83
2023-03-06T12:37:57.479Z,13.36
2023-03-06T12:40:51.576Z,13.53
2023-03-06T12:44:06.249Z,13.88
2023-03-06T12:46:42.702Z,14.14
2023-03-06T12:49:31.173Z,13.82
2023-03-06T12:52:02.145Z,12.59
2023-03-06T12:54:36.033Z,12.32
2023-03-06T12:57:06.962Z,12.72
2023-03-06T12:59:47.730Z,12.79
2023-03-06T13:02:59.218Z,12.55
2023-03-06T13:05:53.022Z,12.34
2023-03-06T13:08:58.867Z,11.57
2023-03-06T13:11:52.407Z,10.90
2023-03-06T13:14:26.473Z,11.06
2023-03-06T13:16:55.450Z,11.58
2023-03-06T13:19:26.762Z,11.96
2023-03-06T13:22:16.507Z,12.29
2023-03-06T13:24:45.482Z,13.28
2023-03-06T13:27:46.782Z,12.74
2023-03-06T13:30:27.197Z,12.98
2023-03-06T13:32:56.916Z,12.94
2023-03-06T13:35:54.678Z,13.38
2023-03-06T13:39:01.676Z,13.29
2023-03-06T13:41:59.545Z,13.18
2023-03-06T13:44:51.040Z,11.87
2023-03-06T13:48:05.835Z,11.03
2023-03-06T13:50:42.456Z,11.50
2023-03-06T13:53:48.282Z,10.71
2023-03-06T13:56:48.961Z,12.41
2023-03-06T13:59:54.391Z,12.77
2023-03-06T14:02:54.700Z,11.82
2023-03-06T14:05:24.117Z,12.27
2023-03-06T14:08:10.787Z,11.89
2023-03-06T14:10:40.263Z,12.76
2023-03-06T14:13:19.573Z,12.97
2023-03-06T14:15:50.111Z,12.82
2023-03-06T14:18:24.356Z,12.84
2023-03-06T14:20:58.579Z,12.61
2023-03-06T14:23:33.399Z,10.93
2023-03-06T14:26:15.141Z,12.07
2023-03-06T14:28:56.392Z,11.75
2023-03-06T14:31:27.945Z,10.63
2023-03-06T14:33:59.161Z,10.52
2023-03-06T14:36:35.465Z,11.26
2023-03-06T14:39:09.848Z,11.50
2023-03-06T14:41:38.552Z,11.59
2023-03-06T14:44:17.981Z,11.59
2023-03-06T14:46:47.377Z,11.21
2023-03-06T14:49:16.718Z,11.51
2023-03-06T14:51:48.126Z,11.33
2023-03-06T14:54:21.533Z,10.80
2023-03-06T14:56:54.544Z,10.25
2023-03-06T14:59:28.470Z,10.62
2023-03-06T15:02:01.976Z,10.73
2023-03-06T15:04:39.174Z,10.52
2023-03-06T15:07:12.091Z,10.59
2023-03-06T15:09:44.800Z,10.83
2023-03-06T15:12:38.741Z,10.45
2023-03-06T15:15:29.627Z,10.40
2023-03-06T15:17:58.067Z,10.17
2023-03-06T15:20:46.374Z,9.94
2023-03-06T15:23:21.636Z,10.21
2023-03-06T15:25:57.732Z,10.36
2023-03-06T15:28:34.443Z,10.35
2023-03-06T15:31:24.836Z,10.31
2023-03-06T15:34:24.517Z,10.38
2023-03-06T15:49:19.564Z,9.87
2023-03-06T15:51:49.561Z,10.00
2023-03-06T15:54:18.370Z,9.98
2023-03-06T15:56:49.735Z,9.94
2023-03-06T15:59:24.619Z,9.95
2023-03-06T16:01:54.367Z,10.01
2023-03-06T16:04:23.808Z,10.17
2023-03-06T16:06:51.839Z,9.72
2023-03-06T16:09:19.752Z,9.63
2023-03-06T16:11:47.699Z,9.62
2023-03-06T16:14:23.613Z,9.73
2023-03-06T16:16:54.102Z,10.16
2023-03-06T16:19:27.793Z,9.76
2023-03-06T16:21:56.405Z,9.44
2023-03-06T16:24:26.149Z,9.44
2023-03-06T16:26:55.957Z,9.09
2023-03-06T16:29:26.690Z,8.62
2023-03-06T16:31:57.785Z,8.08
2023-03-06T16:34:27.036Z,7.52
2023-03-06T16:36:55.210Z,6.81
2023-03-06T16:39:25.278Z,6.45
2023-03-06T16:41:54.039Z,6.26
2023-03-06T16:44:22.668Z,6.35
2023-03-06T16:46:51.758Z,6.09
2023-03-06T16:49:23.579Z,6.31
2023-03-06T16:51:54.708Z,6.37
2023-03-06T16:54:24.238Z,6.47
2023-03-06T16:56:52.141Z,6.50
2023-03-06T16:59:20.064Z,6.42
2023-03-06T17:01:48.008Z,6.48
2023-03-06T17:04:16.002Z,6.33
2023-03-06T17:06:43.840Z,6.14
2023-03-06T17:09:14.361Z,6.32
2023-03-06T17:11:43.431Z,6.44
2023-03-06T17:14:11.476Z,6.21
2023-03-06T17:16:40.498Z,6.05
2023-03-06T17:19:08.737Z,5.92
2023-03-06T17:21:38.578Z,6.29
2023-03-06T17:24:07.837Z,6.43
2023-03-06T17:26:38.796Z,6.21
2023-03-06T17:29:07.269Z,6.34
2023-03-06T17:31:35.129Z,6.48
2023-03-06T17:34:03.206Z,6.63
2023-03-06T17:36:32.929Z,6.16
2023-03-06T17:39:03.288Z,5.97
2023-03-06T17:41:32.816Z,6.26
2023-03-06T17:44:02.770Z,6.03
2023-03-06T17:46:34.360Z,5.93
2023-03-06T17:49:05.438Z,6.05
2023-03-06T17:51:35.617Z,5.95
2023-03-06T17:54:03.666Z,5.83
2023-03-06T17:56:31.842Z,5.75
2023-03-06T17:59:01.111Z,5.72
2023-03-06T18:01:30.190Z,6.00
2023-03-06T18:03:58.615Z,6.09
2023-03-06T18:06:30.012Z,5.84
2023-03-06T18:08:58.007Z,6.10
2023-03-06T18:11:26.065Z,6.11
2023-03-06T18:13:54.051Z,5.85
2023-03-06T18:16:26.973Z,5.86
2023-03-06T18:18:57.270Z,5.79
2023-03-06T18:21:26.426Z,5.38
2023-03-06T18:23:54.574Z,5.38
2023-03-06T18:26:25.536Z,5.47
2023-03-06T18:28:55.987Z,5.51
2023-03-06T18:31:28.567Z,5.59
2023-03-06T18:33:59.049Z,5.33
2023-03-06T18:36:30.281Z,5.30
2023-03-06T18:38:59.234Z,5.74
2023-03-06T18:41:27.453Z,5.65
2023-03-06T18:43:57.608Z,5.52
2023-03-06T18:46:35.115Z,5.33
2023-03-06T18:49:03.787Z,5.27
2023-03-06T18:51:32.056Z,5.25
2023-03-06T18:54:01.765Z,5.18
2023-03-06T18:56:29.863Z,5.30
2023-03-06T18:59:01.622Z,5.32
2023-03-06T19:01:31.682Z,5.51
2023-03-06T19:04:02.072Z,5.41
2023-03-06T19:06:30.705Z,5.31
2023-03-06T19:08:59.488Z,5.35
2023-03-06T19:11:27.972Z,5.43
2023-03-06T19:13:55.916Z,5.61
2023-03-06T19:16:27.106Z,5.43
2023-03-06T19:18:57.730Z,5.41
2023-03-06T19:21:27.491Z,5.30
2023-03-06T19:23:56.021Z,5.20
2023-03-06T19:26:25.232Z,5.39
2023-03-06T19:28:53.153Z,5.32
2023-03-06T19:31:24.955Z,5.44
2023-03-06T19:33:56.995Z,5.20
2023-03-06T19:36:28.828Z,5.21
2023-03-06T19:39:09.461Z,5.47
2023-03-06T19:41:38.597Z,5.54
2023-03-06T19:44:06.844Z,5.40
2023-03-06T19:46:36.205Z,5.39
2023-03-06T19:49:11.744Z,5.34
2023-03-06T19:51:40.087Z,5.38
2023-03-06T19:54:08.014Z,5.36
2023-03-06T19:56:35.914Z,5.55
2023-03-06T19:59:03.754Z,5.51
2023-03-06T20:01:35.195Z,5.41
2023-03-06T20:04:03.373Z,5.49
2023-03-06T20:06:36.650Z,5.54
2023-03-06T20:09:07.796Z,5.40
2023-03-06T20:11:36.108Z,5.50
2023-03-06T20:14:07.475Z,5.47
2023-03-06T20:16:36.485Z,5.40
2023-03-06T20:19:04.815Z,5.23
2023-03-06T20:21:37.804Z,5.42
2023-03-06T20:24:07.388Z,5.38
2023-03-06T20:26:37.557Z,5.21
2023-03-06T20:29:05.518Z,5.05
2023-03-06T20:31:33.515Z,5.17
2023-03-06T20:34:01.347Z,5.29
2023-03-06T20:36:32.374Z,5.09
2023-03-06T20:39:04.447Z,5.21
2023-03-06T20:41:34.212Z,5.08
2023-03-06T20:44:05.060Z,5.24
2023-03-06T20:46:33.944Z,5.21
2023-03-06T20:49:02.448Z,5.32
2023-03-06T20:51:32.858Z,5.23
2023-03-06T20:54:03.712Z,5.11
2023-03-06T20:56:35.444Z,5.04
2023-03-06T20:59:04.104Z,4.90
2023-03-06T21:01:35.351Z,4.98
2023-03-06T21:04:05.181Z,4.90
2023-03-06T21:06:33.995Z,4.79
2023-03-06T21:09:06.063Z,4.62
2023-03-06T21:11:35.796Z,4.69
2023-03-06T21:14:03.770Z,4.81
2023-03-06T21:16:31.875Z,4.62
2023-03-06T21:19:01.491Z,4.64
2023-03-06T21:21:32.283Z,4.62
2023-03-06T21:24:00.452Z,4.66
2023-03-06T21:26:33.669Z,4.67
2023-03-06T21:29:03.525Z,4.65
2023-03-06T21:31:33.397Z,4.71
2023-03-06T21:34:05.018Z,4.65
2023-03-06T21:36:35.096Z,4.76
2023-03-06T21:39:06.074Z,4.64
2023-03-06T21:41:35.619Z,4.55
2023-03-06T21:44:06.018Z,4.50
2023-03-06T21:46:35.515Z,4.65
2023-03-06T21:49:04.980Z,4.58
2023-03-06T21:51:33.137Z,4.61
2023-03-06T21:54:02.121Z,4.43
2023-03-06T21:56:30.260Z,4.60
2023-03-06T21:59:00.135Z,4.51
2023-03-06T22:01:29.875Z,4.56
2023-03-06T22:04:00.014Z,4.57
2023-03-06T22:06:30.759Z,4.61
2023-03-06T22:09:01.177Z,4.73
2023-03-06T22:11:31.505Z,4.75
2023-03-06T22:14:00.920Z,4.55
2023-03-06T22:16:29.131Z,4.71
2023-03-06T22:18:57.610Z,4.60
2023-03-06T22:21:26.005Z,4.91
2023-03-06T22:23:57.224Z,4.75
2023-03-06T22:26:25.997Z,4.65
2023-03-06T22:28:54.273Z,4.67
2023-03-06T22:31:26.571Z,4.74
2023-03-06T22:33:56.555Z,4.73
2023-03-06T22:36:25.153Z,4.63
2023-03-06T22:38:59.140Z,4.84
2023-03-06T22:41:39.631Z,4.93
2023-03-06T22:44:07.715Z,4.84
2023-03-06T22:46:37.008Z,4.83
2023-03-06T22:49:05.140Z,4.99
2023-03-06T22:51:33.074Z,5.03
2023-03-06T22:54:00.983Z,5.13
2023-03-06T22:56:28.935Z,5.07
2023-03-06T22:58:57.759Z,5.02
2023-03-06T23:01:29.458Z,5.18
2023-03-06T23:04:01.225Z,5.02
2023-03-06T23:06:34.899Z,5.15
2023-03-06T23:09:06.794Z,5.00
2023-03-06T23:11:35.629Z,5.27
2023-03-06T23:14:05.399Z,5.25
2023-03-06T23:16:33.993Z,5.20
2023-03-06T23:19:04.364Z,5.20
2023-03-06T23:21:32.596Z,5.39
2023-03-06T23:24:00.568Z,5.00
2023-03-06T23:26:31.515Z,5.37
2023-03-06T23:28:59.694Z,5.28
2023-03-06T23:31:30.416Z,5.20
2023-03-06T23:34:00.600Z,5.27
2023-03-06T23:36:31.782Z,5.10
2023-03-06T23:39:03.159Z,5.04
2023-03-06T23:41:31.134Z,5.28
2023-03-06T23:44:01.529Z,5.20
2023-03-06T23:46:29.557Z,5.29
2023-03-06T23:48:57.425Z,5.44
2023-03-06T23:51:25.437Z,5.24
2023-03-06T23:54:01.504Z,5.33
2023-03-06T23:56:30.189Z,5.53
2023-03-06T23:58:58.207Z,5.40
